createdAt,value
2019-04-23T00:00:37.797Z,4.10
2019-04-23T00:03:10.101Z,3.93
2019-04-23T00:05:41.459Z,4.10
2019-04-23T00:10:33.462Z,4.80
2019-04-23T00:13:05.434Z,4.03
2019-04-23T00:18:30.169Z,4.63
2019-04-23T00:20:57.866Z,4.53
2019-04-23T00:23:38.507Z,4.70
2019-04-23T00:26:19.751Z,4.50
2019-04-23T00:28:51.889Z,5.33
2019-04-23T00:31:18.521Z,5.37
2019-04-23T00:33:40.910Z,5.97
2019-04-23T00:36:23.758Z,5.83
2019-04-23T00:41:17.839Z,5.70
2019-04-23T00:43:49.010Z,6.10
2019-04-23T00:46:15.577Z,6.27
2019-04-23T00:51:20.340Z,6.17
2019-04-23T00:53:43.987Z,6.23
2019-04-23T00:56:35.608Z,6.37
2019-04-23T00:58:49.505Z,6.77
2019-04-23T01:01:18.413Z,6.20
2019-04-23T01:03:53.073Z,7.40
2019-04-23T01:06:19.790Z,6.77
2019-04-23T01:08:51.001Z,7.20
2019-04-23T01:11:21.193Z,6.80
2019-04-23T01:13:49.476Z,7.27
2019-04-23T01:16:15.347Z,7.07
2019-04-23T01:21:28.489Z,7.67
2019-04-23T01:24:05.696Z,7.47
2019-04-23T01:27:27.011Z,7.13
2019-04-23T01:29:42.940Z,7.50
2019-04-23T01:32:15.849Z,7.87
2019-04-23T01:34:49.951Z,8.23
2019-04-23T01:37:20.654Z,7.80
2019-04-23T01:39:50.409Z,8.00
2019-04-23T01:42:24.046Z,8.23
2019-04-23T01:44:50.881Z,8.37
2019-04-23T01:47:19.962Z,8.60
2019-04-23T01:49:54.673Z,9.13
2019-04-23T01:52:24.904Z,8.07
2019-04-23T01:54:56.308Z,8.40
2019-04-23T01:57:23.287Z,9.50
2019-04-23T01:59:54.914Z,9.50
2019-04-23T02:04:59.263Z,8.10
2019-04-23T02:07:29.950Z,9.27
2019-04-23T02:09:58.982Z,9.83
2019-04-23T02:12:27.690Z,8.73
2019-04-23T02:14:56.206Z,9.07
2019-04-23T02:17:25.460Z,10.30
2019-04-23T02:20:01.966Z,8.93
2019-04-23T02:22:31.671Z,9.47
2019-04-23T02:25:06.870Z,9.13
2019-04-23T02:27:37.892Z,9.73
2019-04-23T02:30:15.813Z,9.17
2019-04-23T02:32:41.466Z,9.07
2019-04-23T02:35:32.610Z,9.33
2019-04-23T02:37:56.258Z,8.97
2019-04-23T02:40:23.302Z,9.37
2019-04-23T02:45:10.351Z,9.80
2019-04-23T02:47:42.555Z,9.60
2019-04-23T02:50:34.489Z,9.40
2019-04-23T02:52:47.282Z,8.97
2019-04-23T02:55:18.227Z,9.10
2019-04-23T02:57:41.691Z,9.57
2019-04-23T03:05:20.149Z,9.50
2019-04-23T03:07:47.469Z,9.90
2019-04-23T03:10:15.709Z,9.57
2019-04-23T03:12:50.878Z,9.83
2019-04-23T03:15:36.194Z,10.07
2019-04-23T03:21:05.798Z,9.60
2019-04-23T03:26:19.946Z,10.50
2019-04-23T03:28:53.509Z,10.20
2019-04-23T03:46:24.276Z,12.03
2019-04-23T03:51:13.764Z,12.73
2019-04-23T03:58:51.331Z,12.43
2019-04-23T04:01:25.224Z,13.00
2019-04-23T04:06:31.085Z,11.87
2019-04-23T04:08:52.987Z,13.07
2019-04-23T04:11:14.247Z,12.90
2019-04-23T04:13:53.604Z,11.67
2019-04-23T04:16:34.199Z,12.13
2019-04-23T04:19:06.383Z,11.67
2019-04-23T04:21:33.518Z,11.87
2019-04-23T04:23:53.451Z,12.03
2019-04-23T04:26:24.153Z,12.40
2019-04-23T04:28:54.874Z,11.07
2019-04-23T04:31:20.982Z,10.70
2019-04-23T04:38:56.732Z,11.67
2019-04-23T04:41:29.054Z,10.10
2019-04-23T04:54:03.546Z,9.90
2019-04-23T05:01:25.502Z,10.30
2019-04-23T05:03:45.885Z,10.00
2019-04-23T05:16:27.689Z,9.43
2019-04-23T05:21:38.748Z,9.60
2019-04-23T05:24:00.650Z,8.40
2019-04-23T05:26:27.430Z,8.10
2019-04-23T05:29:03.793Z,8.90
2019-04-23T05:31:29.327Z,8.63
2019-04-23T05:41:36.477Z,7.93
2019-04-23T05:44:10.455Z,8.50
2019-04-23T05:46:36.656Z,8.20
2019-04-23T05:49:14.284Z,7.77
2019-04-23T05:54:17.379Z,7.90
2019-04-23T05:56:38.580Z,8.03
2019-04-23T05:59:12.895Z,8.30
2019-04-23T06:04:17.743Z,7.67
2019-04-23T06:09:15.328Z,7.47
2019-04-23T06:11:52.609Z,7.50
2019-04-23T06:14:36.168Z,7.63
2019-04-23T06:17:02.108Z,7.17
2019-04-23T06:19:16.926Z,7.27
2019-04-23T06:21:57.568Z,7.50
2019-04-23T06:24:34.337Z,7.27
2019-04-23T06:26:51.779Z,7.57
2019-04-23T06:29:25.632Z,7.30
2019-04-23T06:36:58.981Z,6.97
2019-04-23T06:39:34.472Z,7.00
2019-04-23T06:42:00.323Z,7.47
2019-04-23T06:44:30.806Z,6.97
2019-04-23T06:47:03.674Z,7.00
2019-04-23T06:49:37.361Z,7.80
2019-04-23T06:52:14.763Z,7.30
2019-04-23T07:04:43.350Z,7.03
2019-04-23T07:07:32.617Z,6.90
2019-04-23T07:09:35.411Z,7.87
2019-04-23T07:12:08.904Z,6.83
2019-04-23T07:14:44.301Z,6.60
2019-04-23T07:17:08.934Z,7.73
2019-04-23T07:24:55.786Z,7.50
2019-04-23T07:27:33.311Z,7.63
2019-04-23T07:32:31.250Z,7.63
2019-04-23T07:35:08.723Z,7.20
2019-04-23T07:37:40.323Z,7.57
2019-04-23T07:40:22.967Z,8.00
2019-04-23T07:42:51.189Z,7.73
2019-04-23T07:45:32.633Z,7.60
2019-04-23T07:53:17.159Z,8.10
2019-04-23T08:03:27.425Z,7.72
2019-04-23T08:05:49.101Z,7.65
2019-04-23T08:08:25.005Z,7.75
2019-04-23T08:11:25.905Z,7.87
2019-04-23T08:13:39.863Z,7.85
2019-04-23T08:16:06.948Z,8.30
2019-04-23T08:18:43.775Z,8.80
2019-04-23T08:21:10.360Z,8.43
2019-04-23T08:23:44.020Z,8.68
2019-04-23T08:26:34.850Z,8.38
2019-04-23T08:29:04.902Z,8.35
2019-04-23T08:31:38.281Z,7.80
2019-04-23T08:36:42.596Z,7.67
2019-04-23T08:39:07.050Z,7.90
2019-04-23T08:41:46.570Z,8.48
2019-04-23T08:44:25.436Z,7.60
2019-04-23T08:49:36.178Z,7.87
2019-04-23T08:54:42.883Z,8.25
2019-04-23T08:59:44.004Z,8.70
2019-04-23T09:04:51.833Z,7.67
2019-04-23T09:07:16.914Z,7.97
2019-04-23T09:09:53.714Z,8.03
2019-04-23T09:12:23.624Z,7.53
2019-04-23T09:15:01.604Z,7.83
2019-04-23T09:17:34.638Z,8.88
2019-04-23T09:20:15.176Z,8.58
2019-04-23T09:25:06.610Z,8.63
2019-04-23T09:27:33.181Z,7.70
2019-04-23T09:32:53.863Z,8.43
2019-04-23T09:35:27.908Z,7.72
2019-04-23T09:38:04.157Z,7.90
2019-04-23T09:41:04.130Z,9.00
2019-04-23T09:43:27.021Z,8.98
2019-04-23T09:48:54.601Z,8.10
2019-04-23T09:51:17.865Z,8.00
2019-04-23T09:53:47.270Z,7.75
2019-04-23T09:56:14.909Z,8.28
2019-04-23T09:58:41.968Z,8.58
2019-04-23T10:01:27.734Z,8.18
2019-04-23T10:03:52.119Z,8.70
2019-04-23T10:06:14.533Z,8.40
2019-04-23T10:08:46.441Z,8.38
2019-04-23T10:11:11.721Z,8.30
2019-04-23T10:13:45.036Z,8.63
2019-04-23T10:16:17.325Z,8.08
2019-04-23T10:18:44.918Z,8.23
2019-04-23T10:21:15.471Z,8.55
2019-04-23T10:23:47.320Z,8.38
2019-04-23T10:26:16.514Z,8.53
2019-04-23T10:29:03.222Z,8.05
2019-04-23T10:31:33.466Z,8.25
2019-04-23T10:34:06.554Z,8.88
2019-04-23T10:36:37.892Z,8.65
2019-04-23T10:39:14.348Z,8.58
2019-04-23T10:41:45.939Z,9.10
2019-04-23T10:44:19.251Z,8.68
2019-04-23T10:47:35.461Z,8.20
2019-04-23T10:50:05.519Z,8.78
2019-04-23T10:52:30.521Z,7.80
2019-04-23T10:55:06.055Z,9.08
2019-04-23T10:57:31.128Z,9.43
2019-04-23T11:00:22.557Z,9.00
2019-04-23T11:02:48.906Z,9.30
2019-04-23T11:05:29.123Z,9.38
2019-04-23T11:07:42.064Z,9.78
2019-04-23T11:10:23.886Z,8.53
2019-04-23T11:13:01.045Z,9.00
2019-04-23T11:15:50.212Z,9.08
2019-04-23T11:18:00.476Z,9.48
2019-04-23T11:23:11.529Z,8.70
2019-04-23T11:25:57.699Z,8.45
2019-04-23T11:28:21.005Z,8.70
2019-04-23T11:30:57.366Z,9.43
2019-04-23T11:33:39.812Z,8.03
2019-04-23T11:38:48.657Z,8.73
2019-04-23T11:41:10.859Z,9.20
2019-04-23T11:43:37.720Z,9.13
2019-04-23T11:46:21.206Z,9.18
2019-04-23T11:53:51.863Z,9.90
2019-04-23T11:58:48.821Z,9.40
2019-04-23T12:04:14.128Z,8.65
2019-04-23T12:06:32.803Z,9.35
2019-04-23T12:09:25.946Z,8.88
2019-04-23T12:17:19.866Z,10.03
2019-04-23T12:19:54.880Z,9.25
2019-04-23T12:22:10.114Z,9.40
2019-04-23T12:25:06.443Z,9.23
2019-04-23T12:27:15.421Z,8.83
2019-04-23T12:29:54.297Z,8.83
2019-04-23T12:37:34.647Z,9.15
2019-04-23T12:40:08.726Z,9.23
2019-04-23T12:42:54.008Z,9.45
2019-04-23T12:52:41.358Z,9.18
2019-04-23T12:57:40.969Z,8.85
2019-04-23T13:00:22.467Z,8.90
2019-04-23T13:05:21.380Z,8.20
2019-04-23T13:07:54.076Z,8.50
2019-04-23T13:10:22.187Z,8.65
2019-04-23T13:13:03.967Z,9.65
2019-04-23T13:15:29.366Z,9.43
2019-04-23T13:17:57.315Z,9.58
2019-04-23T13:20:27.634Z,8.55
2019-04-23T13:23:13.570Z,8.65
2019-04-23T13:25:49.559Z,8.58
2019-04-23T13:30:53.060Z,8.58
2019-04-23T13:38:35.043Z,8.15
2019-04-23T13:46:17.081Z,8.05
2019-04-23T13:48:40.288Z,7.90
2019-04-23T13:51:19.386Z,7.85
2019-04-23T13:56:18.605Z,7.62
2019-04-23T13:58:43.315Z,7.85
2019-04-23T14:01:23.395Z,7.35
2019-04-23T14:03:53.874Z,7.90
2019-04-23T14:11:27.617Z,8.08
2019-04-23T14:13:56.764Z,8.05
2019-04-23T14:16:48.476Z,8.35
2019-04-23T14:19:06.837Z,7.37
2019-04-23T14:21:44.465Z,8.80
2019-04-23T14:26:36.553Z,8.55
2019-04-23T14:29:04.201Z,8.88
2019-04-23T14:31:44.637Z,9.30
2019-04-23T14:34:17.710Z,9.60
2019-04-23T14:41:54.186Z,9.20
2019-04-23T14:44:23.725Z,9.90
2019-04-23T14:47:09.061Z,9.68
2019-04-23T14:49:36.113Z,9.40
2019-04-23T14:59:41.297Z,9.28
2019-04-23T15:02:19.486Z,8.88
2019-04-23T15:04:47.686Z,9.35
2019-04-23T15:07:22.909Z,9.55
2019-04-23T15:12:39.051Z,9.38
2019-04-23T15:15:02.841Z,9.18
2019-04-23T15:17:33.980Z,9.83
2019-04-23T15:20:08.170Z,9.30
2019-04-23T15:22:32.440Z,9.80
2019-04-23T15:25:20.729Z,9.25
2019-04-23T15:30:00.390Z,10.00
2019-04-23T15:35:22.137Z,9.15
2019-04-23T15:38:03.087Z,9.48
2019-04-23T15:40:16.465Z,9.23
2019-04-23T15:42:53.841Z,9.05
2019-04-23T15:45:19.027Z,9.38
2019-04-23T15:47:48.335Z,8.93
2019-04-23T15:50:22.584Z,8.53
2019-04-23T15:52:53.088Z,8.88
2019-04-23T15:55:36.921Z,8.63
2019-04-23T16:00:17.822Z,9.35
2019-04-23T16:02:23.858Z,8.45
2019-04-23T16:05:03.773Z,8.55
2019-04-23T16:07:51.857Z,8.28
2019-04-23T16:10:28.870Z,9.15
2019-04-23T16:15:43.325Z,8.98
2019-04-23T16:18:28.355Z,8.63
2019-04-23T16:23:31.248Z,8.80
2019-04-23T16:26:02.786Z,8.78
2019-04-23T16:28:28.945Z,8.90
2019-04-23T16:31:15.477Z,8.68
2019-04-23T16:33:38.946Z,9.10
2019-04-23T16:36:32.418Z,8.93
2019-04-23T16:41:17.852Z,8.28
2019-04-23T16:43:48.750Z,8.73
2019-04-23T16:46:21.923Z,8.75
2019-04-23T16:49:02.969Z,8.63
2019-04-23T16:53:54.387Z,8.70
2019-04-23T17:01:28.061Z,8.98
2019-04-23T17:09:09.983Z,8.83
2019-04-23T17:11:44.792Z,8.98
2019-04-23T17:16:49.629Z,9.18
2019-04-23T17:19:33.322Z,8.40
2019-04-23T17:27:10.838Z,8.75
2019-04-23T17:29:34.960Z,9.85
2019-04-23T17:32:15.273Z,9.88
2019-04-23T17:35:11.664Z,9.50
2019-04-23T17:40:12.282Z,9.38
2019-04-23T17:42:55.520Z,9.28
2019-04-23T17:48:08.782Z,8.33
2019-04-23T17:50:50.052Z,8.88
2019-04-23T17:53:21.188Z,8.38
2019-04-23T17:56:03.158Z,10.03
2019-04-23T17:58:24.237Z,10.08
2019-04-23T18:01:03.997Z,9.33
2019-04-23T18:03:26.572Z,9.80
2019-04-23T18:06:14.501Z,9.95
2019-04-23T18:08:29.127Z,9.95
2019-04-23T18:11:05.643Z,9.40
2019-04-23T18:13:27.726Z,10.10
2019-04-23T18:16:21.239Z,10.08
2019-04-23T18:18:38.684Z,10.65
2019-04-23T18:21:32.809Z,9.85
2019-04-23T18:24:13.127Z,10.23
2019-04-23T18:26:42.170Z,10.38
2019-04-23T18:29:25.806Z,10.60
2019-04-23T18:34:36.693Z,10.20
2019-04-23T18:37:01.979Z,11.08
2019-04-23T18:39:31.300Z,10.40
2019-04-23T18:42:13.631Z,10.03
2019-04-23T18:44:37.656Z,9.93
2019-04-23T18:47:08.504Z,10.45
2019-04-23T18:49:45.044Z,11.20
2019-04-23T18:52:04.990Z,9.90
2019-04-23T18:54:35.609Z,10.32
2019-04-23T19:02:37.018Z,11.28
2019-04-23T19:07:56.630Z,10.80
2019-04-23T19:10:26.338Z,11.38
2019-04-23T19:13:07.696Z,11.97
2019-04-23T19:15:39.629Z,12.25
2019-04-23T19:18:04.608Z,11.48
2019-04-23T19:23:28.865Z,12.13
2019-04-23T19:25:50.159Z,11.97
2019-04-23T19:33:35.319Z,11.68
2019-04-23T19:38:36.409Z,13.40
2019-04-23T19:41:12.813Z,12.80
2019-04-23T19:46:38.903Z,11.73
2019-04-23T19:48:57.515Z,11.63
2019-04-23T19:51:25.373Z,11.83
2019-04-23T19:54:09.501Z,12.40
2019-04-23T19:56:37.714Z,12.23
2019-04-23T19:58:56.929Z,11.83
2019-04-23T20:01:49.795Z,12.07
2019-04-23T20:04:16.061Z,12.53
2019-04-23T20:06:58.544Z,12.53
2019-04-23T20:11:42.607Z,12.87
2019-04-23T20:14:00.953Z,12.75
2019-04-23T20:16:50.323Z,12.23
2019-04-23T20:19:05.148Z,12.63
2019-04-23T20:21:47.332Z,12.70
2019-04-23T20:24:22.890Z,11.80
2019-04-23T20:26:45.937Z,12.23
2019-04-23T20:37:09.699Z,12.30
2019-04-23T20:39:49.110Z,11.88
2019-04-23T20:42:22.422Z,11.25
2019-04-23T20:47:10.334Z,12.10
2019-04-23T20:57:42.580Z,11.20
2019-04-23T21:00:08.357Z,11.95
2019-04-23T21:13:09.285Z,11.40
2019-04-23T21:15:28.829Z,11.12
2019-04-23T21:18:22.414Z,11.23
2019-04-23T21:20:36.424Z,11.13
2019-04-23T21:23:09.528Z,10.53
2019-04-23T21:25:40.118Z,12.00
2019-04-23T21:28:14.210Z,11.25
2019-04-23T21:33:28.497Z,11.17
2019-04-23T21:38:58.529Z,10.72
2019-04-23T21:53:56.811Z,10.93
2019-04-23T22:09:10.340Z,10.77
2019-04-23T22:14:19.638Z,11.80
2019-04-23T22:21:54.554Z,10.80
2019-04-23T22:27:05.476Z,11.47
2019-04-23T22:29:33.444Z,11.00
2019-04-23T22:31:56.661Z,10.90
2019-04-23T22:34:40.296Z,10.45
2019-04-23T22:39:45.807Z,10.97
2019-04-23T22:42:36.315Z,11.28
2019-04-23T22:44:57.439Z,10.58
2019-04-23T22:47:17.644Z,10.83
2019-04-23T22:52:21.370Z,10.77
2019-04-23T22:57:17.383Z,10.20
2019-04-23T23:05:14.099Z,11.27
2019-04-23T23:07:39.437Z,10.60
2019-04-23T23:10:06.966Z,11.30
2019-04-23T23:12:56.571Z,11.23
2019-04-23T23:15:30.376Z,10.83
2019-04-23T23:17:51.166Z,11.13
2019-04-23T23:22:52.009Z,10.47
2019-04-23T23:27:55.122Z,10.93
2019-04-23T23:30:15.666Z,10.70
2019-04-23T23:32:49.117Z,10.97
2019-04-23T23:37:43.497Z,10.87
2019-04-23T23:42:56.098Z,10.80
2019-04-23T23:47:56.548Z,10.53
2019-04-23T23:50:34.955Z,11.05
2019-04-23T23:53:00.174Z,11.40
2019-04-23T23:55:19.919Z,10.53
2019-04-23T23:57:56.848Z,11.17
